KHSI

Hastings Municipal Airport

Hastings, Nebraska, USA
METAR KHSI 151853Z AUTO 06007KT 5SM HZ SCT047 OVC055 M12/M15 A3007 RMK AO2 SLP223 T11171150
Observed Flight Rules
Feb-15 @ 18:53 UTC (50 minutes ago) Marginal Visual Flight Rules
Wind Visibility Clouds Conditions
60° at 7 knots 5 miles
  • Scattered at 4,700' AGL
  • Overcast at 5,500' AGL
  • Haze
Temperatures Readings
Current -12°C / 10°F
Dewpoint -15°C / 5°F
Humidity 79%
Altimeter 30.07" Hg
Pressure 1022.3 hPa
Elevation 591
METAR KHSI 151853Z AUTO 06007KT 5SM HZ SCT047 OVC055 M12/M15 A3007 RMK AO2 SLP223 T11171150
Observed Flight Rules
Feb-15 @ 18:53 UTC
(50 minutes ago)
MVFR
Wind Visibility
60° at 7 knots 5 miles
Clouds
  • Scattered at 4,700' AGL
  • Overcast at 5,500' AGL
Conditions
  • Haze
Temperature Dewpoint
-12°C / 10°F -15°C / 5°F
Humidity Altimeter Pressure
79% 30.07" Hg 1022.3 hPa